Werris Creek, Australia
Current Conditions -  °F | °C
As of 6:00 AM on Wednesday 28 Jan 2015 (Local Time) from YSTW Reporting Station
Overcast Overcast  
Wind Chill: 63°   Ceiling: 7300
Heat Index: 63°   Visibility: 6mi
Dew Point: 55°   Wind: 8mph
Humidity: 77%   Direction: 170°S
Pressure: 29.77"   Gusts: NA
Location:  31.35°S, 150.65°E
Report Text: YSTW 271900Z AUTO 17007KT 9999 // BKN073 OVC082 17/13 Q1008
Loading
Personal Weather Stations






























Interactive Weather Map New forecast layout! Learn more

10-Day Weather Forecast

Advertisements
Track Severe Weather on mobile